createdAt,value
2022-09-02T00:01:00.452Z,100321.84
2022-09-02T00:02:02.075Z,100326.50
2022-09-02T00:03:04.701Z,100316.34
2022-09-02T00:04:32.454Z,100325.84
2022-09-02T00:05:33.955Z,100316.69
2022-09-02T00:06:36.374Z,100319.03
2022-09-02T00:07:37.868Z,100326.25
2022-09-02T00:08:39.815Z,100328.44
2022-09-02T00:09:41.308Z,100318.56
2022-09-02T00:10:43.198Z,100320.78
2022-09-02T00:11:45.039Z,100328.81
2022-09-02T00:12:46.586Z,100314.13
2022-09-02T00:13:48.093Z,100311.94
2022-09-02T00:14:49.631Z,100323.16
2022-09-02T00:15:51.117Z,100317.00
2022-09-02T00:16:52.876Z,100318.53
2022-09-02T00:17:54.467Z,100319.69
2022-09-02T00:18:57.881Z,100324.88
2022-09-02T00:19:59.402Z,100313.00
2022-09-02T00:21:00.982Z,100319.38
2022-09-02T00:22:02.600Z,100322.56
2022-09-02T00:23:04.193Z,100320.06
2022-09-02T00:24:05.826Z,100320.25
2022-09-02T00:25:07.846Z,100312.88
2022-09-02T00:26:09.522Z,100320.56
2022-09-02T00:27:11.055Z,100311.91
2022-09-02T00:28:13.076Z,100325.59
2022-09-02T00:29:16.018Z,100321.09
2022-09-02T00:30:17.653Z,100311.25
2022-09-02T00:31:19.363Z,100317.28
2022-09-02T00:32:20.886Z,100310.59
2022-09-02T00:33:22.690Z,100316.91
2022-09-02T00:34:24.749Z,100320.44
2022-09-02T00:35:26.580Z,100314.41
2022-09-02T00:36:28.116Z,100316.44
2022-09-02T00:37:29.635Z,100317.25
2022-09-02T00:38:33.711Z,100318.44
2022-09-02T00:39:35.249Z,100309.91
2022-09-02T00:40:36.982Z,100319.59
2022-09-02T00:41:39.093Z,100311.44
2022-09-02T00:42:40.630Z,100313.78
2022-09-02T00:43:44.735Z,100312.94
2022-09-02T00:44:46.255Z,100303.13
2022-09-02T00:45:47.879Z,100306.78
2022-09-02T00:46:49.461Z,100314.47
2022-09-02T00:47:51.853Z,100311.94
2022-09-02T00:49:02.562Z,100305.75
2022-09-02T00:50:05.251Z,100308.59
2022-09-02T00:51:07.217Z,100301.28
2022-09-02T00:52:16.175Z,100297.94
2022-09-02T00:53:19.091Z,100307.63
2022-09-02T00:54:22.842Z,100299.78
2022-09-02T00:55:26.272Z,100295.28
2022-09-02T00:56:28.263Z,100299.28
2022-09-02T00:57:31.856Z,100297.09
2022-09-02T00:58:33.479Z,100300.63
2022-09-02T00:59:40.556Z,100308.28
2022-09-02T01:00:44.316Z,100303.78
2022-09-02T01:01:45.951Z,100305.31
2022-09-02T01:02:54.920Z,100305.31
2022-09-02T01:03:56.710Z,100305.31
2022-09-02T01:05:01.048Z,100291.81
2022-09-02T01:06:02.727Z,100306.81
2022-09-02T01:07:04.512Z,100301.44
2022-09-02T01:08:07.334Z,100296.13
2022-09-02T01:09:11.724Z,100299.28
2022-09-02T01:10:14.605Z,100302.47
2022-09-02T01:11:18.858Z,100307.28
2022-09-02T01:12:20.472Z,100303.97
2022-09-02T01:13:23.571Z,100297.13
2022-09-02T01:14:28.537Z,100297.47
2022-09-02T01:15:31.184Z,100298.97
2022-09-02T01:16:43.122Z,100305.47
2022-09-02T01:17:47.017Z,100302.97
2022-09-02T01:18:49.809Z,100306.94
2022-09-02T01:19:52.006Z,100304.44
2022-09-02T01:20:53.520Z,100300.28
2022-09-02T01:21:55.738Z,100300.28
2022-09-02T01:22:58.428Z,100299.78
2022-09-02T01:24:00.283Z,100300.97
2022-09-02T01:25:03.893Z,100313.47
2022-09-02T01:26:05.627Z,100305.81
2022-09-02T01:27:07.309Z,100310.97
2022-09-02T01:28:10.491Z,100306.81
2022-09-02T01:29:13.789Z,100306.63
2022-09-02T01:30:16.991Z,100312.13
2022-09-02T01:31:18.676Z,100316.13
2022-09-02T01:32:21.008Z,100308.25
2022-09-02T01:33:22.882Z,100308.91
2022-09-02T01:34:26.694Z,100308.91
2022-09-02T01:35:28.740Z,100307.91
2022-09-02T01:36:30.398Z,100306.25
2022-09-02T01:37:32.415Z,100304.09
2022-09-02T01:38:33.986Z,100301.25
2022-09-02T01:39:36.034Z,100310.09
2022-09-02T01:40:37.770Z,100304.22
2022-09-02T01:41:39.498Z,100306.56
2022-09-02T01:42:41.879Z,100300.91
2022-09-02T01:43:43.417Z,100302.06
2022-09-02T01:44:45.007Z,100304.38
2022-09-02T01:45:47.508Z,100298.22
2022-09-02T01:46:49.782Z,100301.41
2022-09-02T01:47:51.514Z,100297.19
2022-09-02T01:48:53.023Z,100300.38
2022-09-02T01:49:54.660Z,100299.53
2022-09-02T01:50:57.659Z,100302.38
2022-09-02T01:51:59.251Z,100299.03
2022-09-02T01:53:03.812Z,100304.69
2022-09-02T01:54:07.018Z,100298.53
2022-09-02T01:55:09.034Z,100298.53
2022-09-02T01:56:10.562Z,100296.88
2022-09-02T01:57:12.156Z,100291.88
2022-09-02T01:58:13.811Z,100298.38
2022-09-02T01:59:18.098Z,100301.53
2022-09-02T02:00:19.953Z,100294.50
2022-09-02T02:01:21.610Z,100296.34
2022-09-02T02:02:23.597Z,100292.16
2022-09-02T02:03:25.339Z,100298.50
2022-09-02T02:04:28.892Z,100291.16
2022-09-02T02:05:32.233Z,100290.97
2022-09-02T02:06:33.987Z,100299.78
2022-09-02T02:07:35.526Z,100293.63
2022-09-02T02:08:37.374Z,100294.81
2022-09-02T02:09:39.025Z,100297.13
2022-09-02T02:10:40.952Z,100291.25
2022-09-02T02:11:43.420Z,100292.25
2022-09-02T02:12:47.295Z,100288.09
2022-09-02T02:13:48.950Z,100289.91
2022-09-02T02:14:50.487Z,100287.09
2022-09-02T02:15:52.393Z,100291.91
2022-09-02T02:16:53.945Z,100288.22
2022-09-02T02:17:55.481Z,100298.72
2022-09-02T02:18:56.956Z,100299.38
2022-09-02T02:19:58.561Z,100297.66
2022-09-02T02:21:00.074Z,100294.84
2022-09-02T02:22:01.566Z,100293.50
2022-09-02T02:23:03.644Z,100300.31
2022-09-02T02:24:05.511Z,100291.00
2022-09-02T02:25:08.581Z,100289.34
2022-09-02T02:26:10.333Z,100295.00
2022-09-02T02:27:11.984Z,100297.31
2022-09-02T02:28:14.607Z,100295.63
2022-09-02T02:29:16.381Z,100295.63
2022-09-02T02:30:19.830Z,100295.13
2022-09-02T02:31:21.512Z,100297.13
2022-09-02T02:32:23.710Z,100297.13
2022-09-02T02:33:26.164Z,100305.09
2022-09-02T02:34:38.495Z,100303.44
2022-09-02T02:35:40.451Z,100298.09
2022-09-02T02:36:41.995Z,100289.94
2022-09-02T02:37:43.494Z,100294.56
2022-09-02T02:38:46.298Z,100296.78
2022-09-02T02:39:47.831Z,100299.09
2022-09-02T02:40:50.227Z,100299.09
2022-09-02T02:41:51.864Z,100299.38
2022-09-02T02:42:53.577Z,100295.72
2022-09-02T02:43:56.692Z,100300.56
2022-09-02T02:44:58.355Z,100301.72
2022-09-02T02:48:21.770Z,100296.72
2022-09-02T02:49:23.366Z,100300.19
2022-09-02T02:50:26.626Z,100292.88
2022-09-02T02:51:28.309Z,100298.53
2022-09-02T02:52:30.882Z,100297.69
2022-09-02T02:53:34.641Z,100296.03
2022-09-02T02:54:36.587Z,100301.16
2022-09-02T02:55:39.061Z,100291.66
2022-09-02T02:56:40.551Z,100295.66
2022-09-02T02:57:43.182Z,100292.31
2022-09-02T02:58:54.903Z,100293.16
2022-09-02T02:59:58.047Z,100297.78
2022-09-02T03:01:00.082Z,100292.97
2022-09-02T03:02:02.047Z,100293.28
2022-09-02T03:03:04.881Z,100284.28
2022-09-02T03:04:06.535Z,100288.75
2022-09-02T03:05:08.804Z,100288.75
2022-09-02T03:06:17.607Z,100291.09
2022-09-02T03:07:24.817Z,100289.41
2022-09-02T03:08:26.858Z,100288.59
2022-09-02T03:09:28.463Z,100289.41
2022-09-02T03:10:32.637Z,100292.56
2022-09-02T03:11:34.263Z,100281.59
2022-09-02T03:12:36.401Z,100288.41
2022-09-02T03:13:38.645Z,100290.72
2022-09-02T03:14:40.170Z,100285.06
2022-09-02T03:15:42.742Z,100289.06
2022-09-02T03:16:44.735Z,100293.03
2022-09-02T03:17:46.595Z,100286.84
2022-09-02T03:18:48.770Z,100289.69
2022-09-02T03:19:50.898Z,100290.84
2022-09-02T03:20:52.477Z,100282.38
2022-09-02T03:21:54.426Z,100284.69
2022-09-02T03:22:56.600Z,100291.16
2022-09-02T03:23:58.342Z,100283.84
2022-09-02T03:25:00.022Z,100285.34
2022-09-02T03:26:01.551Z,100275.13
2022-09-02T03:27:09.567Z,100291.41
2022-09-02T03:28:11.364Z,100279.28
2022-09-02T03:29:13.494Z,100284.44
2022-09-02T03:30:19.624Z,100285.59
2022-09-02T03:31:21.897Z,100280.59
2022-09-02T03:32:23.451Z,100286.25
2022-09-02T03:33:28.370Z,100284.56
2022-09-02T03:34:31.895Z,100281.25
2022-09-02T03:35:34.035Z,100281.25
2022-09-02T03:36:36.658Z,100283.22
2022-09-02T03:37:39.159Z,100283.53
2022-09-02T03:38:40.911Z,100281.84
2022-09-02T03:39:42.494Z,100286.69
2022-09-02T03:40:44.498Z,100289.50
2022-09-02T03:41:46.068Z,100288.63
2022-09-02T03:42:47.618Z,100278.50
2022-09-02T03:43:49.182Z,100279.66
2022-09-02T03:44:50.687Z,100293.78
2022-09-02T03:45:52.299Z,100286.47
2022-09-02T03:46:53.939Z,100286.47
2022-09-02T03:47:55.454Z,100288.78
2022-09-02T03:49:00.483Z,100284.28
2022-09-02T03:50:03.481Z,100291.09
2022-09-02T03:51:05.668Z,100291.09
2022-09-02T03:52:07.246Z,100285.22
2022-09-02T03:53:08.859Z,100287.22
2022-09-02T03:54:19.936Z,100282.72
2022-09-02T03:55:21.877Z,100285.03
2022-09-02T03:56:24.490Z,100280.53
2022-09-02T03:57:27.195Z,100283.69
2022-09-02T03:58:28.973Z,100285.69
2022-09-02T03:59:32.959Z,100288.84
2022-09-02T04:00:34.485Z,100285.16
2022-09-02T04:01:38.575Z,100275.03
2022-09-02T04:02:40.330Z,100286.31
2022-09-02T04:03:42.431Z,100283.81
2022-09-02T04:04:43.984Z,100284.97
2022-09-02T04:05:48.984Z,100288.09
2022-09-02T04:06:50.826Z,100276.81
2022-09-02T04:07:52.606Z,100290.09
2022-09-02T04:08:54.434Z,100276.28
2022-09-02T04:09:56.401Z,100277.44
2022-09-02T04:10:57.974Z,100277.78
2022-09-02T04:12:00.806Z,100280.91
2022-09-02T04:13:02.314Z,100287.72
2022-09-02T04:14:03.901Z,100283.22
2022-09-02T04:15:06.724Z,100282.41
2022-09-02T04:16:10.639Z,100290.34
2022-09-02T04:17:12.332Z,100287.81
2022-09-02T04:18:14.231Z,100283.34
2022-09-02T04:19:15.768Z,100285.63
2022-09-02T04:20:18.047Z,100286.81
2022-09-02T04:21:19.758Z,100285.13
2022-09-02T04:22:21.611Z,100287.97
2022-09-02T04:23:24.134Z,100294.75
2022-09-02T04:24:26.043Z,100282.44
2022-09-02T04:25:28.096Z,100289.75
2022-09-02T04:26:30.317Z,100289.75
2022-09-02T04:27:33.233Z,100287.25
2022-09-02T04:28:34.722Z,100281.91
2022-09-02T04:29:37.000Z,100292.66
2022-09-02T04:30:39.111Z,100285.34
2022-09-02T04:31:41.213Z,100293.81
2022-09-02T04:32:42.888Z,100284.00
2022-09-02T04:33:45.126Z,100295.63
2022-09-02T04:34:49.993Z,100282.66
2022-09-02T04:35:53.098Z,100297.94
2022-09-02T04:36:56.342Z,100294.59
2022-09-02T04:37:59.093Z,100295.44
2022-09-02T04:39:00.927Z,100288.94
2022-09-02T04:40:05.980Z,100294.59
2022-09-02T04:41:08.709Z,100284.75
2022-09-02T04:42:10.771Z,100285.59
2022-09-02T04:43:12.405Z,100295.22
2022-09-02T04:44:13.893Z,100290.72
2022-09-02T04:45:18.639Z,100286.22
2022-09-02T04:46:22.831Z,100287.38
2022-09-02T04:47:35.970Z,100288.53
2022-09-02T04:48:38.546Z,100293.66
2022-09-02T04:49:42.050Z,100292.00
2022-09-02T04:50:44.037Z,100287.00
2022-09-02T04:51:45.542Z,100295.75
2022-09-02T04:52:47.078Z,100296.56
2022-09-02T04:53:48.999Z,100291.25
2022-09-02T04:54:50.568Z,100296.06
2022-09-02T04:55:57.351Z,100296.06
2022-09-02T04:56:59.715Z,100297.72
2022-09-02T04:58:30.812Z,100290.41
2022-09-02T04:59:32.419Z,100296.06
2022-09-02T05:00:39.304Z,100304.00
2022-09-02T05:01:43.422Z,100289.91
2022-09-02T05:02:53.382Z,100298.38
2022-09-02T05:03:55.819Z,100293.88
2022-09-02T05:05:01.586Z,100299.00
2022-09-02T05:06:07.254Z,100303.50
2022-09-02T05:07:09.615Z,100307.47
2022-09-02T05:08:17.545Z,100307.47
2022-09-02T05:09:20.413Z,100296.19
2022-09-02T05:10:29.706Z,100303.81
2022-09-02T05:11:33.853Z,100303.81
2022-09-02T05:12:35.918Z,100302.16
2022-09-02T05:13:37.876Z,100297.34
2022-09-02T05:14:39.619Z,100304.13
2022-09-02T05:15:44.934Z,100301.31
2022-09-02T05:16:46.938Z,100306.97
2022-09-02T05:17:50.952Z,100308.63
2022-09-02T05:18:52.595Z,100307.47
2022-09-02T05:19:55.063Z,100305.47
2022-09-02T05:20:56.706Z,100304.66
2022-09-02T05:21:59.244Z,100297.03
2022-09-02T05:23:09.411Z,100306.31
2022-09-02T05:24:11.003Z,100303.50
2022-09-02T05:25:13.083Z,100313.63
2022-09-02T05:26:14.708Z,100304.00
2022-09-02T05:27:16.690Z,100302.34
2022-09-02T05:28:20.030Z,100302.03
2022-09-02T05:29:23.719Z,100301.19
2022-09-02T05:30:25.545Z,100308.50
2022-09-02T05:31:29.054Z,100306.31
2022-09-02T05:32:34.448Z,100307.16
2022-09-02T05:33:40.922Z,100301.50
2022-09-02T05:34:42.984Z,100303.81
2022-09-02T05:35:46.009Z,100311.25
2022-09-02T05:36:50.667Z,100304.78
2022-09-02T05:37:53.236Z,100311.84
2022-09-02T05:38:56.035Z,100312.16
2022-09-02T05:39:57.925Z,100300.03
2022-09-02T05:41:07.417Z,100310.78
2022-09-02T05:42:09.707Z,100309.44
2022-09-02T05:43:11.235Z,100310.59
2022-09-02T05:44:13.176Z,100304.44
2022-09-02T05:45:16.687Z,100312.56
2022-09-02T05:46:19.309Z,100311.75
2022-09-02T05:47:21.678Z,100298.78
2022-09-02T05:48:42.167Z,100304.13
2022-09-02T05:49:44.047Z,100302.63
2022-09-02T05:50:50.205Z,100307.13
2022-09-02T05:51:59.420Z,100301.50
2022-09-02T05:53:12.312Z,100305.97
2022-09-02T05:54:17.031Z,100308.19
2022-09-02T05:55:18.630Z,100308.72
2022-09-02T05:56:21.390Z,100308.72
2022-09-02T05:57:22.960Z,100305.28
2022-09-02T05:58:32.247Z,100305.81
2022-09-02T05:59:38.765Z,100304.66
2022-09-02T06:00:40.307Z,100307.16
2022-09-02T06:01:42.297Z,100305.69
2022-09-02T06:02:43.934Z,100310.69
2022-09-02T06:03:58.858Z,100314.91
2022-09-02T06:05:00.833Z,100317.41
2022-09-02T06:06:06.619Z,100317.59
2022-09-02T06:07:11.793Z,100316.13
2022-09-02T06:08:15.331Z,100313.81
2022-09-02T06:09:17.871Z,100309.53
2022-09-02T06:10:21.196Z,100322.19
2022-09-02T06:11:23.153Z,100315.06
2022-09-02T06:12:26.158Z,100314.44
2022-09-02T06:13:31.044Z,100314.66
2022-09-02T06:14:33.182Z,100310.66
2022-09-02T06:15:35.342Z,100303.88
2022-09-02T06:16:37.520Z,100317.84
2022-09-02T06:17:39.768Z,100307.06
2022-09-02T06:18:42.091Z,100303.63
2022-09-02T06:19:44.357Z,100302.16
2022-09-02T06:20:46.704Z,100296.69
2022-09-02T06:21:48.934Z,100304.53
2022-09-02T06:22:50.979Z,100303.06
2022-09-02T06:23:54.564Z,100298.78
2022-09-02T06:24:56.330Z,100311.09
2022-09-02T06:26:01.136Z,100307.63
2022-09-02T06:27:03.382Z,100301.34
2022-09-02T06:28:07.406Z,100299.88
2022-09-02T06:29:12.758Z,100298.09
2022-09-02T06:30:14.392Z,100310.41
2022-09-02T06:31:17.495Z,100303.31
2022-09-02T06:32:19.129Z,100299.53
2022-09-02T06:33:20.713Z,100303.69
2022-09-02T06:34:23.955Z,100300.22
2022-09-02T06:35:25.741Z,100297.91
2022-09-02T06:36:28.238Z,100298.13
2022-09-02T06:37:30.722Z,100295.47
2022-09-02T06:38:35.777Z,100295.66
2022-09-02T06:39:38.160Z,100292.22
2022-09-02T06:40:46.754Z,100294.91
2022-09-02T06:41:49.117Z,100296.25
2022-09-02T06:42:54.056Z,100299.25
2022-09-02T06:44:08.154Z,100294.63
2022-09-02T06:45:12.896Z,100293.16
2022-09-02T06:46:15.749Z,100294.16
2022-09-02T06:47:18.048Z,100291.22
2022-09-02T06:48:23.570Z,100291.72
2022-09-02T06:49:27.255Z,100301.22
2022-09-02T06:50:31.318Z,100289.25
2022-09-02T06:51:36.892Z,100295.94
2022-09-02T06:52:39.105Z,100296.13
2022-09-02T06:53:40.872Z,100303.59
2022-09-02T06:54:42.457Z,100293.34
2022-09-02T06:55:48.748Z,100295.50
2022-09-02T06:56:50.451Z,100293.72
2022-09-02T06:57:56.105Z,100295.25
2022-09-02T06:58:58.074Z,100299.91
2022-09-02T07:00:16.846Z,100285.59
2022-09-02T07:01:19.515Z,100297.13
2022-09-02T07:02:21.363Z,100289.63
2022-09-02T07:03:42.080Z,100276.28
2022-09-02T07:05:03.039Z,100291.16
2022-09-02T07:06:12.635Z,100296.66
2022-09-02T07:07:19.760Z,100287.50
2022-09-02T07:08:38.818Z,100291.03
2022-09-02T07:09:40.366Z,100286.03
2022-09-02T07:10:46.313Z,100293.88
2022-09-02T07:11:48.689Z,100293.22
2022-09-02T07:12:50.280Z,100297.91
2022-09-02T07:13:52.451Z,100296.91
2022-09-02T07:14:56.907Z,100292.25
2022-09-02T07:16:05.156Z,100300.56
2022-09-02T07:17:07.072Z,100290.56
2022-09-02T07:18:08.759Z,100290.44
2022-09-02T07:19:16.088Z,100293.97
2022-09-02T07:20:20.312Z,100295.78
2022-09-02T07:21:29.107Z,100296.81
2022-09-02T07:22:30.637Z,100295.78
2022-09-02T07:23:32.211Z,100298.78
2022-09-02T07:24:34.330Z,100294.97
2022-09-02T07:25:38.315Z,100293.97
2022-09-02T07:26:42.059Z,100285.59
2022-09-02T07:27:43.869Z,100287.47
2022-09-02T07:28:47.108Z,100283.59
2022-09-02T07:29:51.774Z,100294.75
2022-09-02T07:30:59.486Z,100284.78
2022-09-02T07:32:02.727Z,100286.25
2022-09-02T07:33:05.211Z,100289.25
2022-09-02T07:34:07.673Z,100287.41
2022-09-02T07:35:09.868Z,100283.91
2022-09-02T07:36:12.717Z,100288.91
2022-09-02T07:37:15.726Z,100289.91
2022-09-02T07:38:18.131Z,100287.72
2022-09-02T07:39:20.418Z,100283.88
2022-09-02T07:40:23.585Z,100280.41
2022-09-02T07:41:25.848Z,100276.19
2022-09-02T07:43:35.015Z,100282.69
2022-09-02T07:44:37.963Z,100283.16
2022-09-02T07:45:43.576Z,100287.81
2022-09-02T07:46:46.826Z,100279.47
2022-09-02T07:47:50.533Z,100278.09
2022-09-02T07:48:54.254Z,100276.56
2022-09-02T07:51:18.694Z,100266.50
2022-09-02T07:52:20.514Z,100271.50
2022-09-02T07:53:22.526Z,100268.47
2022-09-02T07:54:25.034Z,100271.44
2022-09-02T07:55:27.484Z,100264.72
2022-09-02T07:56:29.289Z,100271.41
2022-09-02T07:57:31.850Z,100269.53
2022-09-02T07:58:33.412Z,100269.72
2022-09-02T07:59:36.616Z,100267.88
2022-09-02T08:00:38.420Z,100272.16
2022-09-02T08:02:51.831Z,100268.91
2022-09-02T08:04:01.448Z,100270.38
2022-09-02T08:05:07.701Z,100270.88
2022-09-02T08:06:09.228Z,100275.88
2022-09-02T08:07:11.102Z,100271.63
2022-09-02T08:08:13.395Z,100272.09
2022-09-02T08:09:14.901Z,100266.22
2022-09-02T08:10:17.149Z,100267.19
2022-09-02T08:11:18.709Z,100272.69
2022-09-02T08:12:22.293Z,100274.13
2022-09-02T08:13:26.834Z,100280.75
2022-09-02T08:14:30.358Z,100272.03
2022-09-02T08:15:31.863Z,100274.19
2022-09-02T08:16:33.640Z,100267.47
2022-09-02T08:17:36.134Z,100276.16
2022-09-02T08:18:37.635Z,100271.78
2022-09-02T08:19:39.164Z,100276.75
2022-09-02T08:20:40.647Z,100275.38
2022-09-02T08:21:42.170Z,100275.50
2022-09-02T08:22:45.204Z,100269.09
2022-09-02T08:23:51.398Z,100272.56
2022-09-02T08:24:52.918Z,100271.16
2022-09-02T08:25:54.418Z,100261.56
2022-09-02T08:26:55.899Z,100262.53
2022-09-02T08:27:57.402Z,100273.69
2022-09-02T08:28:58.992Z,100263.25
2022-09-02T08:30:01.496Z,100267.91
2022-09-02T08:31:06.580Z,100271.34
2022-09-02T08:32:08.234Z,100271.13
2022-09-02T08:33:09.749Z,100278.63
2022-09-02T08:34:11.334Z,100265.56
2022-09-02T08:35:13.051Z,100264.75
2022-09-02T08:36:15.224Z,100266.88
2022-09-02T08:37:18.214Z,100262.97
2022-09-02T08:38:21.958Z,100268.31
2022-09-02T08:39:24.295Z,100266.06
2022-09-02T08:40:28.245Z,100266.66
2022-09-02T08:41:33.107Z,100269.50
2022-09-02T08:42:39.315Z,100264.16
2022-09-02T08:43:41.760Z,100265.59
2022-09-02T08:44:43.288Z,100258.81
2022-09-02T08:45:44.817Z,100257.28
2022-09-02T08:46:46.377Z,100256.69
2022-09-02T08:47:49.390Z,100253.94
2022-09-02T08:48:50.850Z,100251.00
2022-09-02T08:49:53.551Z,100250.03
2022-09-02T08:50:57.278Z,100250.25
2022-09-02T08:52:01.176Z,100252.03
2022-09-02T08:53:18.029Z,100241.72
2022-09-02T08:54:24.497Z,100249.31
2022-09-02T08:55:28.427Z,100251.53
2022-09-02T08:56:31.406Z,100247.63
2022-09-02T08:57:32.937Z,100253.88
2022-09-02T08:58:38.180Z,100252.31
2022-09-02T09:00:42.852Z,100248.00
2022-09-02T09:01:53.781Z,100249.84
2022-09-02T09:03:00.109Z,100245.44
2022-09-02T09:04:10.582Z,100241.06
2022-09-02T09:05:18.235Z,100254.78
2022-09-02T09:06:22.198Z,100240.81
2022-09-02T09:07:30.055Z,100250.88
2022-09-02T09:08:31.751Z,100249.44
2022-09-02T09:09:39.498Z,100234.88
2022-09-02T09:10:56.888Z,100237.44
2022-09-02T09:12:02.821Z,100236.09
2022-09-02T09:13:11.787Z,100232.59
2022-09-02T09:14:37.642Z,100234.00
2022-09-02T09:16:06.301Z,100232.53
2022-09-02T09:17:27.610Z,100228.66
2022-09-02T09:18:36.444Z,100226.44
2022-09-02T09:19:59.048Z,100226.88
2022-09-02T09:21:00.574Z,100222.06
2022-09-02T09:22:03.470Z,100221.81
2022-09-02T09:23:34.026Z,100217.81
2022-09-02T09:24:37.000Z,100216.72
2022-09-02T09:25:38.533Z,100211.53
2022-09-02T09:26:40.925Z,100216.44
2022-09-02T09:27:43.002Z,100218.16
2022-09-02T09:28:45.153Z,100218.44
2022-09-02T09:29:46.857Z,100222.22
2022-09-02T09:30:48.392Z,100216.97
2022-09-02T09:31:53.598Z,100221.09
2022-09-02T09:33:01.319Z,100217.94
2022-09-02T09:34:04.066Z,100210.72
2022-09-02T09:35:23.832Z,100212.44
2022-09-02T09:36:43.361Z,100208.69
2022-09-02T09:37:46.436Z,100213.53
2022-09-02T09:38:48.048Z,100209.31
2022-09-02T09:39:49.706Z,100208.78
2022-09-02T09:40:51.535Z,100210.53
2022-09-02T09:41:54.073Z,100196.66
2022-09-02T09:43:15.282Z,100207.38
2022-09-02T09:44:38.859Z,100201.78
2022-09-02T09:45:41.850Z,100195.47
2022-09-02T09:46:43.372Z,100191.47
2022-09-02T09:47:44.910Z,100194.88
2022-09-02T09:48:53.451Z,100198.03
2022-09-02T09:50:09.843Z,100199.56
2022-09-02T09:51:11.956Z,100197.91
2022-09-02T09:52:21.660Z,100192.22
2022-09-02T09:53:26.291Z,100183.63
2022-09-02T09:54:27.958Z,100193.44
2022-09-02T09:55:30.038Z,100182.38
2022-09-02T09:56:32.363Z,100187.31
2022-09-02T09:57:39.952Z,100176.09
2022-09-02T09:58:46.595Z,100179.25
2022-09-02T09:59:49.822Z,100180.25
2022-09-02T10:00:57.032Z,100181.75
2022-09-02T10:01:58.674Z,100176.44
2022-09-02T10:03:01.171Z,100176.47
2022-09-02T10:04:02.646Z,100169.91
2022-09-02T10:05:11.276Z,100167.69
2022-09-02T10:06:22.657Z,100164.06
2022-09-02T10:07:36.427Z,100174.81
2022-09-02T10:08:38.055Z,100168.41
2022-09-02T10:09:39.522Z,100171.91
2022-09-02T10:10:41.046Z,100169.25
2022-09-02T10:11:58.483Z,100174.28
2022-09-02T10:13:01.159Z,100167.16
2022-09-02T10:14:03.682Z,100158.75
2022-09-02T10:15:05.484Z,100159.34
2022-09-02T10:16:11.549Z,100158.16
2022-09-02T10:17:17.413Z,100166.50
2022-09-02T10:18:31.872Z,100156.69
2022-09-02T10:19:36.206Z,100162.44
2022-09-02T10:21:04.930Z,100163.25
2022-09-02T10:22:17.831Z,100159.56
2022-09-02T10:23:32.426Z,100158.59
2022-09-02T10:24:36.558Z,100158.84
2022-09-02T10:26:02.259Z,100150.19
2022-09-02T10:27:04.011Z,100148.63
2022-09-02T10:28:08.022Z,100159.50
2022-09-02T10:29:28.921Z,100157.84
2022-09-02T10:30:32.041Z,100154.16
2022-09-02T10:31:52.469Z,100150.19
2022-09-02T10:33:00.843Z,100145.41
2022-09-02T10:34:25.215Z,100149.97
2022-09-02T10:35:29.930Z,100156.97
2022-09-02T10:36:36.633Z,100145.06
2022-09-02T10:37:38.110Z,100147.50
2022-09-02T10:38:48.847Z,100153.19
2022-09-02T10:40:09.329Z,100149.16
2022-09-02T10:41:14.662Z,100141.78
2022-09-02T10:42:16.165Z,100142.72
2022-09-02T10:43:18.155Z,100135.41
2022-09-02T10:44:39.581Z,100139.66
2022-09-02T10:45:48.011Z,100133.19
2022-09-02T10:46:52.674Z,100144.72
2022-09-02T10:48:00.155Z,100139.03
2022-09-02T10:49:01.898Z,100131.75
2022-09-02T10:50:07.563Z,100128.06
2022-09-02T10:51:11.954Z,100142.50
2022-09-02T10:53:36.420Z,100140.91
2022-09-02T10:54:43.847Z,100125.28
2022-09-02T10:55:50.366Z,100124.50
2022-09-02T10:57:02.854Z,100110.53
2022-09-02T10:58:06.330Z,100117.13
2022-09-02T10:59:09.918Z,100123.31
2022-09-02T11:00:15.616Z,100114.66
2022-09-02T11:01:20.744Z,100105.22
2022-09-02T11:02:24.954Z,100113.84
2022-09-02T11:03:31.016Z,100121.28
2022-09-02T11:04:37.398Z,100097.38
2022-09-02T11:05:42.266Z,100109.31
2022-09-02T11:07:03.509Z,100102.72
2022-09-02T11:08:12.920Z,100106.84
2022-09-02T11:09:29.557Z,100095.31
2022-09-02T11:10:37.097Z,100093.25
2022-09-02T11:11:42.978Z,100091.16
2022-09-02T11:13:02.962Z,100093.69
2022-09-02T11:14:08.839Z,100092.41
2022-09-02T11:15:20.459Z,100093.22
2022-09-02T11:16:34.521Z,100085.03
2022-09-02T11:17:43.395Z,100087.50
2022-09-02T11:18:46.856Z,100085.03
2022-09-02T11:20:09.770Z,100082.94
2022-09-02T11:21:23.566Z,100086.25
2022-09-02T11:22:27.710Z,100095.72
2022-09-02T11:23:35.957Z,100086.66
2022-09-02T11:24:43.294Z,100082.56
2022-09-02T11:26:07.704Z,100081.72
2022-09-02T11:27:32.207Z,100091.13
2022-09-02T11:28:39.746Z,100081.66
2022-09-02T11:29:44.326Z,100082.44
2022-09-02T11:30:47.592Z,100087.38
2022-09-02T11:31:57.281Z,100083.69
2022-09-02T11:33:01.081Z,100084.50
2022-09-02T11:35:27.819Z,100071.25
2022-09-02T11:36:29.435Z,100085.53
2022-09-02T11:37:51.636Z,100069.38
2022-09-02T11:38:59.695Z,100061.06
2022-09-02T11:40:23.464Z,100065.09
2022-09-02T11:41:36.810Z,100072.09
2022-09-02T11:42:47.815Z,100076.56
2022-09-02T11:43:51.447Z,100074.88
2022-09-02T11:45:06.188Z,100076.09
2022-09-02T11:46:08.251Z,100066.25
2022-09-02T11:47:29.407Z,100072.00
2022-09-02T11:48:36.680Z,100069.59
2022-09-02T11:49:57.207Z,100063.78
2022-09-02T11:51:10.783Z,100060.09
2022-09-02T11:52:18.358Z,100065.47
2022-09-02T11:53:28.156Z,100071.25
2022-09-02T11:54:32.508Z,100067.97
2022-09-02T11:55:35.325Z,100077.06
2022-09-02T11:56:38.003Z,100071.31
2022-09-02T11:57:41.357Z,100065.56
2022-09-02T11:58:43.959Z,100074.63
2022-09-02T11:59:51.577Z,100069.22
2022-09-02T12:01:00.455Z,100058.91
2022-09-02T12:02:02.215Z,100065.44
2022-09-02T12:03:16.839Z,100052.22
2022-09-02T12:05:51.473Z,100062.88
2022-09-02T12:07:09.961Z,100064.94
2022-09-02T12:08:32.739Z,100054.53
2022-09-02T12:09:53.080Z,100064.88
2022-09-02T12:10:59.658Z,100076.38
2022-09-02T12:12:01.833Z,100059.09
2022-09-02T12:13:03.794Z,100057.44
2022-09-02T12:14:13.832Z,100061.16
2022-09-02T12:15:16.887Z,100057.78
2022-09-02T12:16:21.685Z,100052.44
2022-09-02T12:17:46.867Z,100058.59
2022-09-02T12:18:54.642Z,100052.78
2022-09-02T12:19:56.298Z,100055.25
2022-09-02T12:20:59.450Z,100054.44
2022-09-02T12:22:30.713Z,100061.00
2022-09-02T12:23:51.182Z,100043.75
2022-09-02T12:24:57.688Z,100049.81
2022-09-02T12:26:02.074Z,100054.34
2022-09-02T12:27:04.858Z,100048.25
2022-09-02T12:28:23.947Z,100050.31
2022-09-02T12:29:25.938Z,100041.69
2022-09-02T12:30:46.007Z,100032.69